Time,TemperatureF,DewpointF,PressureIn,WindDirection,WindDirectionDegrees,WindSpeedMPH,WindSpeedGustMPH,Humidity,HourlyPrecipIn,Conditions,Clouds,dailyrainin,SoftwareType,DateUTC
2013-01-01 00:02:00,26.5,25.0,29.66,South,172,0.0,2.0,92,0.00,,,0.00,weatherlink.com 1.10,2013-01-01 05:02:00,
2013-01-01 00:17:00,27.2,25.0,29.65,SE,138,2.0,2.0,91,0.00,,,0.00,weatherlink.com 1.10,2013-01-01 05:17:00,
2013-01-01 00:32:00,27.8,25.0,29.63,SSE,152,0.0,2.0,89,0.00,,,0.00,weatherlink.com 1.10,2013-01-01 05:32:00,
2013-01-01 00:48:00,27.9,25.0,29.62,SSE,166,0.0,1.0,89,0.00,,,0.00,weatherlink.com 1.10,2013-01-01 05:48:00,
2013-01-01 01:03:00,28.8,25.0,29.61,ESE,120,3.0,5.0,87,0.00,,,0.00,weatherlink.com 1.10,2013-01-01 06:03:00,
2013-01-01 01:18:00,29.3,26.0,29.61,SE,143,1.0,8.0,86,0.00,,,0.00,weatherlink.com 1.10,2013-01-01 06:18:00,
2013-01-01 01:33:00,29.5,26.0,29.62,South,191,0.0,7.0,85,0.00,,,0.00,weatherlink.com 1.10,2013-01-01 06:33:00,
2013-01-01 01:48:00,29.1,25.0,29.61,South,169,0.0,1.0,84,0.00,,,0.00,weatherlink.com 1.10,2013-01-01 06:48:00,
2013-01-01 02:03:00,29.0,25.0,29.61,SSE,167,0.0,2.0,84,0.00,,,0.00,weatherlink.com 1.10,2013-01-01 07:03:00,
2013-01-01 02:18:00,29.5,25.0,29.61,SSE,159,1.0,5.0,84,0.00,,,0.00,weatherlink.com 1.10,2013-01-01 07:18:00,
2013-01-01 02:33:00,30.5,26.0,29.60,SE,138,1.0,9.0,84,0.00,,,0.00,weatherlink.com 1.10,2013-01-01 07:33:00,
2013-01-01 02:48:00,30.5,25.0,29.60,South,180,0.0,3.0,81,0.00,,,0.00,weatherlink.com 1.10,2013-01-01 07:48:00,
2013-01-01 03:03:00,30.3,25.0,29.60,South,172,1.0,4.0,82,0.00,,,0.00,weatherlink.com 1.10,2013-01-01 08:03:00,
2013-01-01 03:18:00,30.6,26.0,29.59,South,172,1.0,4.0,82,0.00,,,0.00,weatherlink.com 1.10,2013-01-01 08:18:00,
2013-01-01 03:33:00,30.5,26.0,29.59,SSE,165,2.0,4.0,83,0.00,,,0.00,weatherlink.com 1.10,2013-01-01 08:33:00,
2013-01-01 03:48:00,30.6,26.0,29.59,SE,145,1.0,3.0,83,0.00,,,0.00,weatherlink.com 1.10,2013-01-01 08:48:00,
2013-01-01 04:03:00,30.7,26.0,29.58,ESE,109,2.0,3.0,82,0.00,,,0.00,weatherlink.com 1.10,2013-01-01 09:03:00,
2013-01-01 04:18:00,31.0,26.0,29.58,South,186,0.0,2.0,82,0.00,,,0.00,weatherlink.com 1.10,2013-01-01 09:18:00,
2013-01-01 04:33:00,31.0,26.0,29.58,SSE,158,0.0,4.0,82,0.00,,,0.00,weatherlink.com 1.10,2013-01-01 09:33:00,
2013-01-01 04:48:00,30.6,26.0,29.58,SSE,166,1.0,4.0,82,0.00,,,0.00,weatherlink.com 1.10,2013-01-01 09:48:00,
2013-01-01 05:03:00,30.5,26.0,29.58,South,181,0.0,4.0,83,0.00,,,0.00,weatherlink.com 1.10,2013-01-01 10:03:00,
2013-01-01 05:18:00,30.5,26.0,29.58,South,173,0.0,5.0,84,0.00,,,0.00,weatherlink.com 1.10,2013-01-01 10:18:00,
2013-01-01 05:33:00,30.4,26.0,29.58,South,169,1.0,3.0,84,0.00,,,0.00,weatherlink.com 1.10,2013-01-01 10:33:00,
2013-01-01 05:48:00,30.5,27.0,29.59,SSW,208,4.0,5.0,85,0.00,,,0.00,weatherlink.com 1.10,2013-01-01 10:48:00,
2013-01-01 06:03:00,30.6,26.0,29.60,South,174,1.0,3.0,84,0.00,,,0.00,weatherlink.com 1.10,2013-01-01 11:03:00,
2013-01-01 06:18:00,30.7,26.0,29.61,South,172,0.0,3.0,84,0.00,,,0.00,weatherlink.com 1.10,2013-01-01 11:18:00,
2013-01-01 06:33:00,30.7,27.0,29.62,South,183,3.0,3.0,85,0.00,,,0.00,weatherlink.com 1.10,2013-01-01 11:33:00,
2013-01-01 06:48:00,30.7,27.0,29.62,SSE,165,2.0,4.0,86,0.00,,,0.00,weatherlink.com 1.10,2013-01-01 11:48:00,
2013-01-01 07:03:00,30.8,27.0,29.62,SSE,160,1.0,2.0,86,0.00,,,0.00,weatherlink.com 1.10,2013-01-01 12:03:00,
2013-01-01 07:18:00,30.7,27.0,29.62,South,177,0.0,4.0,86,0.00,,,0.00,weatherlink.com 1.10,2013-01-01 12:18:00,
2013-01-01 07:33:00,30.4,27.0,29.62,SSE,167,0.0,2.0,86,0.00,,,0.00,weatherlink.com 1.10,2013-01-01 12:33:00,
2013-01-01 07:48:00,30.3,26.0,29.63,SSE,160,0.0,2.0,85,0.00,,,0.00,weatherlink.com 1.10,2013-01-01 12:48:00,
2013-01-01 08:03:00,30.8,26.0,29.63,SSE,161,0.0,2.0,83,0.00,,,0.00,weatherlink.com 1.10,2013-01-01 13:03:00,
2013-01-01 08:18:00,31.9,26.0,29.64,South,169,0.0,4.0,79,0.00,,,0.00,weatherlink.com 1.10,2013-01-01 13:18:00,
2013-01-01 08:33:00,32.8,26.0,29.64,South,187,2.0,4.0,75,0.00,,,0.00,weatherlink.com 1.10,2013-01-01 13:33:00,
2013-01-01 08:48:00,31.9,23.0,29.65,SSE,162,2.0,8.0,70,0.00,,,0.00,weatherlink.com 1.10,2013-01-01 13:48:00,
2013-01-01 09:03:00,32.9,21.0,29.65,SSE,168,0.0,6.0,63,0.00,,,0.00,weatherlink.com 1.10,2013-01-01 14:03:00,
2013-01-01 09:18:00,32.7,19.0,29.65,SSE,152,3.0,7.0,58,0.00,,,0.00,weatherlink.com 1.10,2013-01-01 14:18:00,
2013-01-01 09:33:00,32.0,19.0,29.65,SSE,168,2.0,7.0,58,0.00,,,0.00,weatherlink.com 1.10,2013-01-01 14:33:00,
2013-01-01 09:48:00,32.0,16.0,29.65,South,172,4.0,8.0,51,0.00,,,0.00,weatherlink.com 1.10,2013-01-01 14:48:00,
2013-01-01 10:04:00,32.2,15.0,29.66,SE,137,3.0,7.0,50,0.00,,,0.00,weatherlink.com 1.10,2013-01-01 15:04:00,
2013-01-01 10:19:00,31.8,15.0,29.67,SSW,212,3.0,9.0,50,0.00,,,0.00,weatherlink.com 1.10,2013-01-01 15:19:00,
2013-01-01 10:34:00,31.8,15.0,29.65,SSE,167,4.0,9.0,50,0.00,,,0.00,weatherlink.com 1.10,2013-01-01 15:34:00,
2013-01-01 10:49:00,31.9,17.0,29.66,SSE,151,3.0,7.0,54,0.00,,,0.00,weatherlink.com 1.10,2013-01-01 15:49:00,
2013-01-01 11:04:00,31.2,13.0,29.66,South,181,2.0,12.0,48,0.00,,,0.00,weatherlink.com 1.10,2013-01-01 16:04:00,
2013-01-01 11:19:00,31.1,12.0,29.66,SSE,156,2.0,8.0,45,0.00,,,0.00,weatherlink.com 1.10,2013-01-01 16:19:00,
2013-01-01 11:34:00,30.6,12.0,29.66,South,170,2.0,10.0,46,0.00,,,0.00,weatherlink.com 1.10,2013-01-01 16:34:00,
2013-01-01 11:49:00,31.0,12.0,29.64,SE,145,3.0,5.0,46,0.00,,,0.00,weatherlink.com 1.10,2013-01-01 16:49:00,
2013-01-01 12:04:00,31.1,11.0,29.65,South,173,0.0,6.0,44,0.00,,,0.00,weatherlink.com 1.10,2013-01-01 17:04:00,
2013-01-01 12:19:00,30.8,12.0,29.65,SSE,166,6.0,8.0,45,0.00,,,0.00,weatherlink.com 1.10,2013-01-01 17:19:00,
2013-01-01 12:34:00,30.7,12.0,29.64,SSW,207,3.0,7.0,45,0.00,,,0.00,weatherlink.com 1.10,2013-01-01 17:34:00,
2013-01-01 12:49:00,30.5,11.0,29.64,SSE,167,1.0,7.0,45,0.00,,,0.00,weatherlink.com 1.10,2013-01-01 17:49:00,
2013-01-01 13:04:00,29.9,8.0,29.65,SSE,163,2.0,10.0,39,0.00,,,0.00,weatherlink.com 1.10,2013-01-01 18:04:00,
2013-01-01 13:19:00,28.5,7.0,29.65,SE,131,3.0,14.0,41,0.00,,,0.00,weatherlink.com 1.10,2013-01-01 18:19:00,
2013-01-01 13:34:00,28.3,9.0,29.66,SSE,153,3.0,9.0,44,0.00,,,0.00,weatherlink.com 1.10,2013-01-01 18:34:00,
2013-01-01 13:49:00,27.5,8.0,29.66,South,181,5.0,9.0,43,0.00,,,0.00,weatherlink.com 1.10,2013-01-01 18:49:00,
2013-01-01 14:04:00,27.0,8.0,29.66,SSW,193,4.0,9.0,44,0.00,,,0.00,weatherlink.com 1.10,2013-01-01 19:04:00,
2013-01-01 14:19:00,26.5,7.0,29.66,SSW,200,4.0,9.0,44,0.00,,,0.00,weatherlink.com 1.10,2013-01-01 19:19:00,
2013-01-01 14:34:00,26.1,7.0,29.67,SSE,153,2.0,7.0,44,0.00,,,0.00,weatherlink.com 1.10,2013-01-01 19:34:00,
2013-01-01 14:49:00,25.9,8.0,29.68,South,177,2.0,6.0,46,0.00,,,0.00,weatherlink.com 1.10,2013-01-01 19:49:00,
2013-01-01 15:04:00,25.3,8.0,29.68,South,174,2.0,6.0,48,0.00,,,0.00,weatherlink.com 1.10,2013-01-01 20:04:00,
2013-01-01 15:19:00,24.4,8.0,29.69,South,176,1.0,7.0,49,0.00,,,0.00,weatherlink.com 1.10,2013-01-01 20:19:00,
2013-01-01 15:34:00,23.6,6.0,29.69,SSE,163,5.0,7.0,48,0.00,,,0.00,weatherlink.com 1.10,2013-01-01 20:34:00,
2013-01-01 15:49:00,22.9,7.0,29.70,South,181,5.0,10.0,51,0.00,,,0.00,weatherlink.com 1.10,2013-01-01 20:49:00,
2013-01-01 16:04:00,22.3,7.0,29.70,South,190,3.0,5.0,53,0.00,,,0.00,weatherlink.com 1.10,2013-01-01 21:04:00,
2013-01-01 16:19:00,21.6,7.0,29.70,SSE,152,1.0,3.0,53,0.00,,,0.00,weatherlink.com 1.10,2013-01-01 21:19:00,
2013-01-01 16:34:00,21.3,6.0,29.70,SSE,151,2.0,4.0,52,0.00,,,0.00,weatherlink.com 1.10,2013-01-01 21:34:00,
2013-01-01 16:49:00,21.1,7.0,29.72,SSE,165,0.0,6.0,54,0.00,,,0.00,weatherlink.com 1.10,2013-01-01 21:49:00,
2013-01-01 17:04:00,20.6,6.0,29.72,South,169,0.0,3.0,54,0.00,,,0.00,weatherlink.com 1.10,2013-01-01 22:04:00,
2013-01-01 17:19:00,20.1,6.0,29.73,SSE,157,3.0,6.0,54,0.00,,,0.00,weatherlink.com 1.10,2013-01-01 22:19:00,
2013-01-01 17:35:00,19.7,6.0,29.73,South,181,2.0,5.0,56,0.00,,,0.00,weatherlink.com 1.10,2013-01-01 22:35:00,
2013-01-01 17:50:00,19.3,7.0,29.75,South,175,1.0,4.0,59,0.00,,,0.00,weatherlink.com 1.10,2013-01-01 22:50:00,
2013-01-01 18:05:00,18.6,6.0,29.76,SSE,168,0.0,3.0,57,0.00,,,0.00,weatherlink.com 1.10,2013-01-01 23:05:00,
2013-01-01 18:20:00,18.1,5.0,29.75,South,171,0.0,5.0,57,0.00,,,0.00,weatherlink.com 1.10,2013-01-01 23:20:00,
2013-01-01 18:35:00,17.8,6.0,29.76,SSE,160,0.0,3.0,60,0.00,,,0.00,weatherlink.com 1.10,2013-01-01 23:35:00,
2013-01-01 18:50:00,17.4,6.0,29.77,SSE,155,0.0,5.0,60,0.00,,,0.00,weatherlink.com 1.10,2013-01-01 23:50:00,
2013-01-01 19:05:00,17.1,5.0,29.77,SSE,165,1.0,7.0,59,0.00,,,0.00,weatherlink.com 1.10,2013-01-02 00:05:00,
2013-01-01 19:20:00,16.7,5.0,29.79,SSE,167,0.0,6.0,59,0.00,,,0.00,weatherlink.com 1.10,2013-01-02 00:20:00,
2013-01-01 19:35:00,16.3,4.0,29.79,SSE,162,2.0,5.0,59,0.00,,,0.00,weatherlink.com 1.10,2013-01-02 00:35:00,
2013-01-01 19:50:00,15.8,4.0,29.80,SSE,165,0.0,7.0,59,0.00,,,0.00,weatherlink.com 1.10,2013-01-02 00:50:00,
2013-01-01 20:05:00,15.4,3.0,29.81,SSE,160,1.0,4.0,59,0.00,,,0.00,weatherlink.com 1.10,2013-01-02 01:05:00,
2013-01-01 20:20:00,15.0,3.0,29.81,SSE,165,5.0,8.0,60,0.00,,,0.00,weatherlink.com 1.10,2013-01-02 01:20:00,
2013-01-01 20:35:00,14.6,3.0,29.81,SSE,165,1.0,7.0,60,0.00,,,0.00,weatherlink.com 1.10,2013-01-02 01:35:00,
2013-01-01 20:50:00,14.1,3.0,29.81,SSE,149,1.0,4.0,62,0.00,,,0.00,weatherlink.com 1.10,2013-01-02 01:50:00,
2013-01-01 21:05:00,13.9,3.0,29.81,South,169,0.0,2.0,63,0.00,,,0.00,weatherlink.com 1.10,2013-01-02 02:05:00,
2013-01-01 21:20:00,13.5,3.0,29.81,South,174,2.0,4.0,63,0.00,,,0.00,weatherlink.com 1.10,2013-01-02 02:20:00,
2013-01-01 21:35:00,13.4,3.0,29.81,SSE,166,0.0,4.0,63,0.00,,,0.00,weatherlink.com 1.10,2013-01-02 02:35:00,
2013-01-01 21:50:00,13.0,3.0,29.81,South,181,1.0,3.0,63,0.00,,,0.00,weatherlink.com 1.10,2013-01-02 02:50:00,
2013-01-01 22:05:00,12.5,2.0,29.81,SSE,165,0.0,5.0,64,0.00,,,0.00,weatherlink.com 1.10,2013-01-02 03:05:00,
2013-01-01 22:20:00,12.1,3.0,29.82,South,170,0.0,1.0,66,0.00,,,0.00,weatherlink.com 1.10,2013-01-02 03:20:00,
2013-01-01 22:35:00,11.9,3.0,29.82,South,169,0.0,1.0,68,0.00,,,0.00,weatherlink.com 1.10,2013-01-02 03:35:00,
2013-01-01 22:50:00,12.0,3.0,29.82,South,170,0.0,2.0,68,0.00,,,0.00,weatherlink.com 1.10,2013-01-02 03:50:00,
2013-01-01 23:05:00,12.1,3.0,29.83,SE,136,0.0,3.0,66,0.00,,,0.00,weatherlink.com 1.10,2013-01-02 04:05:00,
2013-01-01 23:20:00,12.2,3.0,29.83,South,172,3.0,5.0,66,0.00,,,0.00,weatherlink.com 1.10,2013-01-02 04:20:00,
2013-01-01 23:36:00,12.1,3.0,29.83,South,180,3.0,6.0,67,0.00,,,0.00,weatherlink.com 1.10,2013-01-02 04:36:00,
2013-01-01 23:51:00,11.7,2.0,29.84,South,173,2.0,5.0,66,0.00,,,0.00,weatherlink.com 1.10,2013-01-02 04:51:00,